Time;durP1;ratioP1;P1;durP2;ratioP2;P2;SDS_P1;SDS_P2;PMS_P1;PMS_P2;Temp;Humidity;BMP_temperature;BMP_pressure;BME280_temperature;BME280_humidity;BME280_pressure;Samples;Min_cycle;Max_cycle;Signal;HPM_P1;HPM_P2
2022/06/18 00:00:26;;;;;;;1999.90;999.90;;;24.40;52.90;;;;;;4955144;28;20397;-75
2022/06/18 00:02:52;;;;;;;1999.90;999.90;;;24.30;54.00;;;;;;4955368;28;20758;-75
2022/06/18 00:05:20;;;;;;;1999.90;999.90;;;24.30;54.90;;;;;;4955142;28;20464;-75
2022/06/18 00:07:51;;;;;;;1999.90;999.90;;;24.30;56.20;;;;;;4954828;28;20429;-75
2022/06/18 00:10:24;;;;;;;1999.90;999.90;;;24.10;57.30;;;;;;4955069;28;20428;-75
2022/06/18 00:15:39;;;;;;;1999.90;999.90;;;24.10;59.00;;;;;;4955047;29;20470;-75
2022/06/18 00:18:11;;;;;;;1999.90;999.90;;;24.00;59.80;;;;;;4954730;28;20554;-75
2022/06/18 00:20:39;;;;;;;1999.90;999.90;;;24.00;61.80;;;;;;4954796;28;20483;-75
2022/06/18 00:23:13;;;;;;;1999.90;999.90;;;23.90;62.20;;;;;;4954821;28;20403;-75
2022/06/18 00:25:41;;;;;;;1999.90;999.90;;;23.80;63.20;;;;;;4954741;28;20416;-75
2022/06/18 00:28:15;;;;;;;1999.90;999.90;;;23.80;64.80;;;;;;4954499;28;20772;-75
2022/06/18 00:30:41;;;;;;;1999.90;999.90;;;23.70;65.90;;;;;;4954750;28;20498;-75
2022/06/18 00:33:07;;;;;;;1999.90;999.90;;;23.70;67.30;;;;;;4954247;28;20411;-75
2022/06/18 00:35:34;;;;;;;1999.90;999.90;;;23.60;68.30;;;;;;4954635;28;20389;-75
2022/06/18 00:38:02;;;;;;;1999.90;999.90;;;23.60;69.90;;;;;;4954334;28;20385;-75
2022/06/18 00:40:37;;;;;;;1999.90;999.90;;;23.60;71.10;;;;;;4954484;28;20433;-75
2022/06/18 00:43:21;;;;;;;1999.90;999.90;;;23.50;73.10;;;;;;4954573;28;20388;-75
2022/06/18 00:45:50;;;;;;;1999.90;999.90;;;23.30;75.90;;;;;;4954385;28;20960;-76
2022/06/18 00:48:27;;;;;;;1999.90;999.90;;;23.30;77.10;;;;;;4954163;28;20438;-75
2022/06/18 00:51:03;;;;;;;1999.90;999.90;;;23.30;79.30;;;;;;4954446;28;20487;-75
2022/06/18 00:53:36;;;;;;;1999.90;999.90;;;23.20;81.40;;;;;;4954392;28;20405;-75
2022/06/18 00:56:09;;;;;;;1999.90;999.90;;;23.10;84.00;;;;;;4953845;28;20474;-75
2022/06/18 00:59:12;;;;;;;1999.90;999.90;;;23.00;86.50;;;;;;4954381;28;20385;-75
2022/06/18 01:01:42;;;;;;;1999.90;999.90;;;23.10;89.00;;;;;;4954252;28;20459;-75
2022/06/18 01:04:24;;;;;;;1999.90;999.90;;;23.00;90.00;;;;;;4954186;28;20480;-75
2022/06/18 01:06:53;;;;;;;1999.90;999.90;;;23.10;90.70;;;;;;4953875;28;20816;-76
2022/06/18 01:09:19;;;;;;;1999.90;999.90;;;23.00;91.50;;;;;;4954005;28;20756;-75
2022/06/18 01:11:46;;;;;;;1999.90;999.90;;;23.00;92.40;;;;;;4954116;28;20385;-75
2022/06/18 01:14:17;;;;;;;1999.90;999.90;;;22.90;93.40;;;;;;4954068;28;20539;-75
2022/06/18 01:16:43;;;;;;;1999.90;999.90;;;22.90;94.40;;;;;;4953775;28;20389;-75
2022/06/18 01:19:20;;;;;;;1999.90;999.90;;;22.80;95.40;;;;;;4953859;28;20529;-75
2022/06/18 01:22:18;;;;;;;1999.90;999.90;;;22.80;96.30;;;;;;4954032;28;20377;-75
2022/06/18 01:24:44;;;;;;;1999.90;999.90;;;22.70;97.30;;;;;;4954016;28;20855;-75
2022/06/18 01:27:11;;;;;;;1999.90;999.90;;;22.70;99.30;;;;;;4953672;28;20471;-75
2022/06/18 01:29:38;;;;;;;1999.90;999.90;;;22.60;99.90;;;;;;4953810;28;20396;-75
2022/06/18 01:32:07;;;;;;;1999.90;999.90;;;22.50;99.90;;;;;;4953839;28;20408;-75
2022/06/18 01:34:34;;;;;;;1999.90;999.90;;;22.60;99.90;;;;;;4954061;28;20826;-75
2022/06/18 01:37:02;;;;;;;1999.90;999.90;;;22.50;99.90;;;;;;4953597;28;20410;-76
2022/06/18 01:39:33;;;;;;;1999.90;999.90;;;22.50;99.90;;;;;;4953698;28;20425;-75
2022/06/18 01:42:22;;;;;;;1999.90;999.90;;;22.50;99.90;;;;;;4953873;28;20406;-75
2022/06/18 01:45:03;;;;;;;1999.90;999.90;;;22.50;99.90;;;;;;4956121;28;20439;-75
2022/06/18 01:47:39;;;;;;;1999.90;999.90;;;22.50;99.90;;;;;;4957336;28;20975;-74
2022/06/18 01:50:20;;;;;;;1999.90;999.90;;;22.60;99.90;;;;;;4957650;28;20404;-75
2022/06/18 01:53:03;;;;;;;1999.90;999.90;;;22.60;99.90;;;;;;4957650;28;20749;-75
2022/06/18 01:55:42;;;;;;;1999.90;999.90;;;22.60;99.90;;;;;;4957572;29;20384;-75
2022/06/18 01:58:16;;;;;;;1999.90;999.90;;;22.70;99.90;;;;;;4957310;28;20413;-75
2022/06/18 02:00:44;;;;;;;1999.90;999.90;;;22.60;99.90;;;;;;4957380;28;20456;-75
2022/06/18 02:03:11;;;;;;;1999.90;999.90;;;22.60;99.90;;;;;;4957487;28;20409;-75
2022/06/18 02:05:37;;;;;;;1999.90;999.90;;;22.50;99.90;;;;;;4957773;28;20505;-75
2022/06/18 02:08:06;;;;;;;1999.90;999.90;;;22.60;99.90;;;;;;4957115;28;20473;-75
2022/06/18 02:11:10;;;;;;;1999.90;999.90;;;22.60;99.90;;;;;;4957337;28;20494;-75
2022/06/18 02:13:43;;;;;;;1999.90;999.90;;;22.50;99.90;;;;;;4916716;29;20435;-75
2022/06/18 02:16:15;;;;;;;1999.90;999.90;;;22.50;99.90;;;;;;4951353;28;20404;-75
2022/06/18 02:18:43;;;;;;;1999.90;999.90;;;22.50;99.90;;;;;;4957212;28;20416;-75
2022/06/18 02:21:12;;;;;;;1999.90;999.90;;;22.50;99.90;;;;;;4957032;28;20450;-75
2022/06/18 02:23:38;;;;;;;1999.90;999.90;;;22.50;99.90;;;;;;4957001;28;20420;-75
2022/06/18 02:26:06;;;;;;;1999.90;999.90;;;22.50;99.90;;;;;;4956719;28;20426;-75
2022/06/18 02:28:37;;;;;;;1999.90;999.90;;;22.40;99.90;;;;;;4956989;28;20403;-75
2022/06/18 02:31:03;;;;;;;1999.90;999.90;;;22.40;99.90;;;;;;4956849;28;20408;-75
2022/06/18 02:33:42;;;;;;;1999.90;999.90;;;22.40;99.90;;;;;;4956864;28;20484;-75
2022/06/18 02:36:15;;;;;;;1999.90;999.90;;;22.40;99.90;;;;;;4956527;28;20927;-75
2022/06/18 02:38:43;;;;;;;1999.90;999.90;;;22.40;99.90;;;;;;4956788;28;20403;-75
2022/06/18 02:41:09;;;;;;;1999.90;999.90;;;22.40;99.90;;;;;;4956673;28;20413;-75
2022/06/18 02:43:35;;;;;;;1999.90;999.90;;;22.30;99.90;;;;;;4956794;28;20448;-75
2022/06/18 02:46:02;;;;;;;1999.90;999.90;;;22.20;99.90;;;;;;4956282;28;20430;-75
2022/06/18 02:48:31;;;;;;;1999.90;999.90;;;22.10;99.90;;;;;;4956640;28;20414;-75
2022/06/18 02:50:58;;;;;;;1999.90;999.90;;;22.00;99.90;;;;;;4956691;28;20404;-75
2022/06/18 02:53:25;;;;;;;1999.90;999.90;;;21.90;99.90;;;;;;4956506;28;20472;-75
2022/06/18 02:55:55;;;;;;;1999.90;999.90;;;21.80;99.90;;;;;;4956038;28;20381;-75
2022/06/18 02:58:28;;;;;;;1999.90;999.90;;;21.70;99.90;;;;;;4957355;28;20435;-76
2022/06/18 03:01:04;;;;;;;1999.90;999.90;;;21.60;99.90;;;;;;4958271;28;20455;-76
2022/06/18 03:03:33;;;;;;;1999.90;999.90;;;21.60;99.90;;;;;;4959682;28;20436;-76
2022/06/18 03:05:59;;;;;;;1999.90;999.90;;;21.40;99.90;;;;;;4956113;28;20449;-75
2022/06/18 03:08:26;;;;;;;1999.90;999.90;;;21.50;99.90;;;;;;4956280;28;20380;-76
2022/06/18 03:13:37;;;;;;;1999.90;999.90;;;21.60;99.90;;;;;;4956578;29;20473;-75
2022/06/18 03:16:05;;;;;;;1999.90;999.90;;;21.80;99.90;;;;;;4955820;28;20385;-75
2022/06/18 03:18:32;;;;;;;1999.90;999.90;;;21.90;99.90;;;;;;4956051;28;20557;-75
2022/06/18 03:21:15;;;;;;;1999.90;999.90;;;22.10;99.90;;;;;;4955857;28;20432;-75
2022/06/18 03:23:41;;;;;;;1999.90;999.90;;;22.20;99.90;;;;;;4955990;28;20903;-75
2022/06/18 03:26:07;;;;;;;1999.90;999.90;;;22.50;99.90;;;;;;4955599;28;20428;-75
2022/06/18 03:28:33;;;;;;;1999.90;999.90;;;22.60;99.90;;;;;;4955967;28;20389;-74
2022/06/18 03:30:58;;;;;;;1999.90;999.90;;;22.70;99.90;;;;;;4955766;28;20183;-75
2022/06/18 03:33:24;;;;;;;1999.90;999.90;;;22.80;99.90;;;;;;4955834;28;20263;-75
2022/06/18 03:35:51;;;;;;;1999.90;999.90;;;22.90;99.90;;;;;;4955645;28;20178;-75
2022/06/18 03:38:16;;;;;;;1999.90;999.90;;;23.00;99.90;;;;;;4955566;28;20184;-74
2022/06/18 03:40:44;;;;;;;1999.90;999.90;;;23.10;99.90;;;;;;4955477;28;20762;-75
2022/06/18 03:43:11;;;;;;;1999.90;999.90;;;23.10;99.90;;;;;;4955633;28;20174;-75
2022/06/18 03:45:42;;;;;;;1999.90;999.90;;;23.30;99.90;;;;;;4955443;28;20448;-74
2022/06/18 03:48:16;;;;;;;1999.90;999.90;;;23.40;99.90;;;;;;4955294;28;20783;-74
2022/06/18 03:50:41;;;;;;;1999.90;999.90;;;23.50;99.90;;;;;;4955481;28;20484;-75
2022/06/18 03:53:09;;;;;;;1999.90;999.90;;;23.50;99.90;;;;;;4955454;28;20488;-75
2022/06/18 03:55:34;;;;;;;1999.90;999.90;;;23.60;99.90;;;;;;4955373;28;20174;-75
2022/06/18 03:58:00;;;;;;;1999.90;999.90;;;23.70;99.90;;;;;;4955035;28;20884;-75
2022/06/18 04:00:25;;;;;;;1999.90;999.90;;;23.80;99.90;;;;;;4955261;28;20211;-75
2022/06/18 04:02:51;;;;;;;1999.90;999.90;;;23.80;99.90;;;;;;4955290;28;20181;-75
2022/06/18 04:05:17;;;;;;;1999.90;999.90;;;23.90;99.90;;;;;;4955295;28;20167;-75
2022/06/18 04:07:43;;;;;;;1999.90;999.90;;;24.00;99.90;;;;;;4954090;28;20691;-75
2022/06/18 04:10:19;;;;;;;1999.90;999.90;;;24.00;99.90;;;;;;4955092;28;20195;-75
2022/06/18 04:12:45;;;;;;;1999.90;999.90;;;24.00;99.90;;;;;;4955110;28;20386;-75
2022/06/18 04:15:12;;;;;;;1999.90;999.90;;;23.80;99.90;;;;;;4955015;28;20843;-75
2022/06/18 04:17:38;;;;;;;1999.90;999.90;;;23.50;99.90;;;;;;4954731;28;20382;-75
2022/06/18 04:20:06;;;;;;;1999.90;999.90;;;23.30;99.90;;;;;;4954782;28;20453;-75
2022/06/18 04:22:31;;;;;;;1999.90;999.90;;;23.10;99.90;;;;;;4954890;28;20385;-75
2022/06/18 04:24:57;;;;;;;1999.90;999.90;;;22.90;99.90;;;;;;4954769;28;20864;-76
2022/06/18 04:27:22;;;;;;;1999.90;999.90;;;22.70;99.90;;;;;;4954566;28;20206;-75
2022/06/18 04:29:48;;;;;;;1999.90;999.90;;;22.60;99.90;;;;;;4954700;28;20233;-75
2022/06/18 04:32:14;;;;;;;1999.90;999.90;;;22.50;99.90;;;;;;4954751;28;20732;-75
2022/06/18 04:34:39;;;;;;;1999.90;999.90;;;22.40;99.90;;;;;;4954694;28;20781;-75
2022/06/18 04:37:05;;;;;;;1999.90;999.90;;;22.40;99.90;;;;;;4954414;28;20189;-75
2022/06/18 04:39:30;;;;;;;1999.90;999.90;;;22.20;99.90;;;;;;4954541;28;20551;-76
2022/06/18 04:41:56;;;;;;;1999.90;999.90;;;22.20;99.90;;;;;;4954468;28;20261;-75
2022/06/18 04:44:22;;;;;;;1999.90;999.90;;;22.20;99.90;;;;;;4954590;28;20185;-75
2022/06/18 04:46:49;;;;;;;1999.90;999.90;;;22.20;99.90;;;;;;4954115;28;20214;-76
2022/06/18 04:49:15;;;;;;;1999.90;999.90;;;22.20;99.90;;;;;;4954478;28;20575;-75
2022/06/18 04:51:41;;;;;;;1999.90;999.90;;;22.30;99.90;;;;;;4954452;28;20414;-75
2022/06/18 04:54:06;;;;;;;1999.90;999.90;;;22.30;99.90;;;;;;4954395;28;20384;-75
2022/06/18 04:56:32;;;;;;;1999.90;999.90;;;22.30;99.90;;;;;;4954091;28;20523;-75
2022/06/18 04:58:57;;;;;;;1999.90;999.90;;;22.30;99.90;;;;;;4954234;28;20226;-75
2022/06/18 05:01:29;;;;;;;1999.90;999.90;;;22.30;99.90;;;;;;4954282;28;20519;-75
2022/06/18 05:03:55;;;;;;;1999.90;999.90;;;22.30;99.90;;;;;;4954289;28;20174;-75
2022/06/18 05:06:20;;;;;;;1999.90;999.90;;;22.40;99.90;;;;;;4953902;28;20429;-75
2022/06/18 05:08:46;;;;;;;1999.90;999.90;;;22.40;99.90;;;;;;4954114;28;20190;-75
2022/06/18 05:11:12;;;;;;;1999.90;999.90;;;22.50;99.90;;;;;;4954063;28;20186;-75
2022/06/18 05:13:37;;;;;;;1999.90;999.90;;;22.50;99.90;;;;;;4954078;28;20537;-76
2022/06/18 05:16:05;;;;;;;1999.90;999.90;;;22.60;99.90;;;;;;4953833;28;20667;-75
2022/06/18 05:18:33;;;;;;;1999.90;999.90;;;22.70;99.90;;;;;;4953952;28;20215;-75
2022/06/18 05:20:59;;;;;;;1999.90;999.90;;;22.80;99.90;;;;;;4953928;28;20489;-75
2022/06/18 05:23:25;;;;;;;1999.90;999.90;;;22.90;99.90;;;;;;4954056;28;20435;-75
2022/06/18 05:25:55;;;;;;;1999.90;999.90;;;23.00;99.90;;;;;;4953848;28;20784;-75
2022/06/18 05:28:20;;;;;;;1999.90;999.90;;;23.10;99.90;;;;;;4953853;28;20823;-75
2022/06/18 05:30:46;;;;;;;1999.90;999.90;;;23.20;99.90;;;;;;4953848;28;20557;-75
2022/06/18 05:33:12;;;;;;;1999.90;999.90;;;23.40;99.90;;;;;;4953977;28;20175;-75
2022/06/18 05:35:40;;;;;;;1999.90;999.90;;;23.60;99.90;;;;;;4953893;28;20174;-75
2022/06/18 05:38:06;;;;;;;1999.90;999.90;;;23.70;99.90;;;;;;4953595;28;20175;-75
2022/06/18 05:40:32;;;;;;;1999.90;999.90;;;23.70;99.90;;;;;;4953784;28;20401;-75
2022/06/18 05:42:57;;;;;;;1999.90;999.90;;;23.80;99.90;;;;;;4953769;28;20926;-75
2022/06/18 05:45:23;;;;;;;1999.90;999.90;;;23.90;99.90;;;;;;4953879;28;20163;-75
2022/06/18 05:47:49;;;;;;;1999.90;999.90;;;24.00;99.90;;;;;;4953429;28;20195;-75
2022/06/18 05:50:17;;;;;;;1999.90;999.90;;;24.10;99.90;;;;;;4954228;28;20541;-75
2022/06/18 05:52:43;;;;;;;1999.90;999.90;;;24.20;99.90;;;;;;4959653;28;20237;-75
2022/06/18 05:55:09;;;;;;;1999.90;999.90;;;24.30;99.90;;;;;;4959664;28;20414;-74
2022/06/18 05:57:43;;;;;;;1999.90;999.90;;;24.40;99.90;;;;;;4957639;29;20418;-75
2022/06/18 06:00:12;;;;;;;1999.90;999.90;;;24.50;99.90;;;;;;4957485;29;20922;-76
2022/06/18 06:02:38;;;;;;;1999.90;999.90;;;24.50;99.90;;;;;;4973638;28;20414;-76
2022/06/18 06:05:04;;;;;;;1999.90;999.90;;;24.60;99.90;;;;;;4955328;29;20524;-76
2022/06/18 06:07:29;;;;;;;1999.90;999.90;;;24.70;99.90;;;;;;4956742;28;20203;-76
2022/06/18 06:12:40;;;;;;;1999.90;999.90;;;24.80;99.90;;;;;;4957210;29;20174;-76
2022/06/18 06:15:07;;;;;;;1999.90;999.90;;;24.90;99.90;;;;;;4957276;28;20875;-76
2022/06/18 06:17:32;;;;;;;1999.90;999.90;;;25.00;99.90;;;;;;4956473;28;20423;-76
2022/06/18 06:20:27;;;;;;;1999.90;999.90;;;25.10;99.90;;;;;;4957010;29;20458;-76
2022/06/18 06:22:53;;;;;;;1999.90;999.90;;;25.20;99.90;;;;;;4964045;28;20246;-75
2022/06/18 06:25:19;;;;;;;1999.90;999.90;;;25.30;99.90;;;;;;4955299;29;20964;-76
2022/06/18 06:27:44;;;;;;;1999.90;999.90;;;25.40;99.90;;;;;;4955956;28;20202;-76
2022/06/18 06:30:15;;;;;;;1999.90;999.90;;;25.50;99.90;;;;;;4957986;28;20187;-75
2022/06/18 06:32:40;;;;;;;1999.90;999.90;;;25.60;99.90;;;;;;4960398;28;20163;-76
2022/06/18 06:35:06;;;;;;;1999.90;999.90;;;25.60;99.90;;;;;;4962130;28;20928;-75
2022/06/18 06:37:32;;;;;;;1999.90;999.90;;;25.70;99.90;;;;;;4961368;29;20245;-76
2022/06/18 06:39:57;;;;;;;1999.90;999.90;;;25.80;99.90;;;;;;4961059;29;20802;-75
2022/06/18 06:42:23;;;;;;;1999.90;999.90;;;25.90;99.90;;;;;;4961777;29;20217;-76
2022/06/18 06:44:49;;;;;;;1999.90;999.90;;;26.10;99.90;;;;;;4960872;29;20179;-76
2022/06/18 06:47:14;;;;;;;1999.90;999.90;;;26.10;99.90;;;;;;4961452;28;20221;-76
2022/06/18 06:49:40;;;;;;;1999.90;999.90;;;26.30;99.90;;;;;;4961103;28;20183;-75
2022/06/18 06:52:06;;;;;;;1999.90;999.90;;;26.40;99.90;;;;;;4958524;28;20234;-75
2022/06/18 06:54:31;;;;;;;1999.90;999.90;;;26.50;99.90;;;;;;4956532;28;20544;-75
2022/06/18 06:59:41;;;;;;;1999.90;999.90;;;26.70;99.90;;;;;;4956474;29;20328;-75
2022/06/18 07:02:25;;;;;;;1999.90;999.90;;;26.80;99.90;;;;;;4956397;28;20509;-75
2022/06/18 07:04:50;;;;;;;1999.90;999.90;;;26.80;99.90;;;;;;4956412;28;20167;-75
2022/06/18 07:07:16;;;;;;;1999.90;999.90;;;27.00;99.90;;;;;;4955948;28;20800;-76
2022/06/18 07:09:42;;;;;;;1999.90;999.90;;;27.10;99.90;;;;;;4956171;28;20182;-75
2022/06/18 07:12:08;;;;;;;1999.90;999.90;;;27.20;99.90;;;;;;4956545;28;20171;-75
2022/06/18 07:14:35;;;;;;;1999.90;999.90;;;27.30;99.90;;;;;;4956201;28;20664;-75
2022/06/18 07:17:01;;;;;;;1999.90;999.90;;;27.40;99.90;;;;;;4955813;28;20415;-75
2022/06/18 07:19:27;;;;;;;1999.90;999.90;;;27.40;99.90;;;;;;4955962;28;20458;-75
2022/06/18 07:21:52;;;;;;;1999.90;999.90;;;27.50;99.90;;;;;;4956111;28;20402;-75
2022/06/18 07:24:19;;;;;;;1999.90;999.90;;;27.60;99.90;;;;;;4955947;28;20178;-75
2022/06/18 07:26:45;;;;;;;1999.90;999.90;;;27.70;99.90;;;;;;4955601;28;20238;-75
2022/06/18 07:29:13;;;;;;;1999.90;999.90;;;27.70;99.90;;;;;;4955849;28;20441;-75
2022/06/18 07:31:39;;;;;;;1999.90;999.90;;;27.90;99.90;;;;;;4955911;28;20767;-75
2022/06/18 07:34:06;;;;;;;1999.90;999.90;;;28.00;99.90;;;;;;4955886;28;20433;-76
2022/06/18 07:36:32;;;;;;;1999.90;999.90;;;28.10;99.90;;;;;;4955488;28;20414;-75
2022/06/18 07:39:00;;;;;;;1999.90;999.90;;;28.20;99.90;;;;;;4955574;28;20470;-75
2022/06/18 07:41:40;;;;;;;1999.90;999.90;;;28.20;99.90;;;;;;4954572;28;20406;-75
2022/06/18 07:44:06;;;;;;;1999.90;999.90;;;28.30;99.90;;;;;;4955693;28;20456;-75
2022/06/18 07:46:32;;;;;;;1999.90;999.90;;;28.50;99.90;;;;;;4955289;28;20470;-75
2022/06/18 07:48:57;;;;;;;1999.90;999.90;;;28.60;99.90;;;;;;4955417;29;20637;-75
2022/06/18 07:51:25;;;;;;;1999.90;999.90;;;28.70;98.50;;;;;;4955498;28;20190;-75
2022/06/18 07:53:51;;;;;;;1999.90;999.90;;;28.80;97.90;;;;;;4955411;28;20199;-75
2022/06/18 07:56:17;;;;;;;1999.90;999.90;;;28.80;99.40;;;;;;4955111;28;21007;-75
2022/06/18 07:58:43;;;;;;;1999.90;999.90;;;28.90;99.90;;;;;;4955462;28;20183;-75
2022/06/18 08:01:08;;;;;;;1999.90;999.90;;;28.90;99.50;;;;;;4955321;28;20577;-73
2022/06/18 08:03:35;;;;;;;1999.90;999.90;;;28.90;98.50;;;;;;4955330;28;20489;-73
2022/06/18 08:06:02;;;;;;;1999.90;999.90;;;28.90;98.20;;;;;;4955863;28;20557;-72
2022/06/18 08:08:28;;;;;;;1999.90;999.90;;;29.10;94.80;;;;;;4958207;28;20749;-73
2022/06/18 08:10:54;;;;;;;1999.90;999.90;;;29.20;94.10;;;;;;4958083;28;20430;-71
2022/06/18 08:13:21;;;;;;;1999.90;999.90;;;29.30;94.40;;;;;;4957491;28;20418;-72
2022/06/18 08:15:48;;;;;;;1999.90;999.90;;;29.40;91.90;;;;;;4973195;28;20454;-71
2022/06/18 08:18:14;;;;;;;1999.90;999.90;;;29.40;92.10;;;;;;4957883;28;20414;-73
2022/06/18 08:20:41;;;;;;;1999.90;999.90;;;29.40;90.70;;;;;;4956477;29;20469;-72
2022/06/18 08:23:08;;;;;;;1999.90;999.90;;;29.60;92.60;;;;;;4955829;29;20431;-72
2022/06/18 08:25:37;;;;;;;1999.90;999.90;;;29.70;90.30;;;;;;4955159;29;20992;-71
2022/06/18 08:28:04;;;;;;;1999.90;999.90;;;29.80;83.50;;;;;;4956038;28;20488;-72
2022/06/18 08:30:31;;;;;;;1999.90;999.90;;;29.90;83.40;;;;;;4956623;28;20456;-73
2022/06/18 08:32:56;;;;;;;1999.90;999.90;;;29.90;81.20;;;;;;4956768;28;20422;-73
2022/06/18 08:35:22;;;;;;;1999.90;999.90;;;30.00;78.70;;;;;;4957341;28;20418;-72
2022/06/18 08:37:49;;;;;;;1999.90;999.90;;;30.10;79.40;;;;;;4956344;28;20222;-71
2022/06/18 08:40:34;;;;;;;1999.90;999.90;;;30.20;75.10;;;;;;4955457;29;20755;-72
2022/06/18 08:43:23;;;;;;;1999.90;999.90;;;30.40;73.00;;;;;;4956402;28;20421;-71
2022/06/18 08:45:52;;;;;;;1999.90;999.90;;;30.50;69.70;;;;;;4956514;28;20781;-72
2022/06/18 08:48:39;;;;;;;1999.90;999.90;;;30.60;70.50;;;;;;4956357;28;20417;-71
2022/06/18 08:51:37;;;;;;;1999.90;999.90;;;30.60;66.20;;;;;;4956724;28;20438;-71
2022/06/18 08:54:20;;;;;;;1999.90;999.90;;;30.70;63.60;;;;;;4956035;28;20411;-72
2022/06/18 08:56:49;;;;;;;1999.90;999.90;;;30.80;62.40;;;;;;4956113;28;20917;-72
2022/06/18 08:59:29;;;;;;;1999.90;999.90;;;30.90;59.70;;;;;;4956157;28;20446;-71
2022/06/18 09:02:18;;;;;;;1999.90;999.90;;;30.90;61.80;;;;;;4971084;28;20587;-72
2022/06/18 09:04:49;;;;;;;1999.90;999.90;;;31.00;59.60;;;;;;4956456;28;20422;-72
2022/06/18 09:07:37;;;;;;;1999.90;999.90;;;31.10;59.30;;;;;;4955268;28;20462;-71
2022/06/18 09:10:22;;;;;;;1999.90;999.90;;;31.20;57.30;;;;;;4954935;28;20430;-71
2022/06/18 09:12:57;;;;;;;1999.90;999.90;;;31.30;57.10;;;;;;4955724;28;20418;-72
2022/06/18 09:15:36;;;;;;;1999.90;999.90;;;31.40;54.90;;;;;;4969977;28;20418;-71
2022/06/18 09:18:10;;;;;;;1999.90;999.90;;;31.40;54.60;;;;;;4955005;28;20408;-72
2022/06/18 09:20:43;;;;;;;1999.90;999.90;;;31.50;54.30;;;;;;4955425;28;20805;-73
2022/06/18 09:23:19;;;;;;;1999.90;999.90;;;31.50;52.70;;;;;;4954892;28;20415;-71
2022/06/18 09:25:50;;;;;;;1999.90;999.90;;;31.60;53.30;;;;;;4955177;28;20407;-71
2022/06/18 09:28:33;;;;;;;1999.90;999.90;;;31.80;53.00;;;;;;4955059;28;20465;-73
2022/06/18 09:31:08;;;;;;;1999.90;999.90;;;31.80;56.00;;;;;;4954845;28;20433;-71
2022/06/18 09:33:39;;;;;;;1999.90;999.90;;;31.90;51.50;;;;;;4953489;29;20414;-73
2022/06/18 09:36:27;;;;;;;1999.90;999.90;;;32.00;51.30;;;;;;4953232;29;20418;-71
2022/06/18 09:39:01;;;;;;;1999.90;999.90;;;32.20;50.90;;;;;;4953351;29;20414;-71
2022/06/18 09:41:53;;;;;;;1999.90;999.90;;;32.30;50.70;;;;;;4954475;28;20420;-71
2022/06/18 09:44:25;;;;;;;1999.90;999.90;;;32.30;49.80;;;;;;4954763;28;20411;-71
2022/06/18 09:46:58;;;;;;;1999.90;999.90;;;32.50;49.60;;;;;;4954257;28;20481;-71
2022/06/18 09:49:23;;;;;;;1999.90;999.90;;;32.70;48.40;;;;;;4954302;28;20430;-71
2022/06/18 09:51:56;;;;;;;1999.90;999.90;;;32.70;46.40;;;;;;4952938;29;20502;-71
2022/06/18 09:54:28;;;;;;;1999.90;999.90;;;32.80;46.10;;;;;;4954495;28;20174;-71
2022/06/18 09:56:59;;;;;;;1999.90;999.90;;;32.90;46.10;;;;;;4954056;28;20406;-71
2022/06/18 09:59:33;;;;;;;1999.90;999.90;;;33.00;45.20;;;;;;4953203;29;20521;-72
2022/06/18 10:02:00;;;;;;;1999.90;999.90;;;33.10;49.50;;;;;;4954305;28;20417;-71
2022/06/18 10:07:27;;;;;;;1999.90;999.90;;;33.40;44.20;;;;;;4957571;29;20476;-71
2022/06/18 10:10:02;;;;;;;1999.90;999.90;;;33.50;45.70;;;;;;4957874;28;20811;-72
2022/06/18 10:12:34;;;;;;;1999.90;999.90;;;33.70;41.60;;;;;;4957845;28;20433;-71
2022/06/18 10:15:05;;;;;;;1999.90;999.90;;;33.80;44.90;;;;;;4957897;28;20402;-71
2022/06/18 10:17:42;;;;;;;1999.90;999.90;;;33.80;40.30;;;;;;4957498;28;20410;-71
2022/06/18 10:20:46;;;;;;;1999.90;999.90;;;33.80;38.80;;;;;;4972284;28;20500;-70
2022/06/18 10:23:14;;;;;;;1999.90;999.90;;;34.00;38.40;;;;;;4956153;29;20920;-71
2022/06/18 10:25:53;;;;;;;1999.90;999.90;;;34.10;36.40;;;;;;4957749;28;20976;-70
2022/06/18 10:28:38;;;;;;;1999.90;999.90;;;34.20;37.70;;;;;;4955889;29;20945;-71
2022/06/18 10:31:11;;;;;;;1999.90;999.90;;;34.40;35.70;;;;;;4972316;28;20446;-71
2022/06/18 10:33:47;;;;;;;1999.90;999.90;;;34.60;33.80;;;;;;4957610;28;20407;-71
2022/06/18 10:36:25;;;;;;;1999.90;999.90;;;34.70;32.30;;;;;;4957128;28;20441;-72
2022/06/18 10:39:12;;;;;;;1999.90;999.90;;;34.70;32.00;;;;;;4957419;28;20838;-71
2022/06/18 10:42:16;;;;;;;1999.90;999.90;;;34.80;31.30;;;;;;4957581;28;20817;-72
2022/06/18 10:45:00;;;;;;;1999.90;999.90;;;34.60;32.20;;;;;;4972409;28;20956;-72
2022/06/18 10:47:33;;;;;;;1999.90;999.90;;;34.70;28.40;;;;;;4956809;29;20461;-71
2022/06/18 10:50:02;;;;;;;1999.90;999.90;;;34.70;27.80;;;;;;4957294;28;20419;-71
2022/06/18 10:52:28;;;;;;;1999.90;999.90;;;34.80;27.90;;;;;;4957081;28;20415;-71
2022/06/18 10:55:11;;;;;;;1999.90;999.90;;;34.80;27.90;;;;;;4957054;28;20509;-73
2022/06/18 10:57:37;;;;;;;1999.90;999.90;;;35.00;29.00;;;;;;4956853;28;20749;-71
2022/06/18 11:00:31;;;;;;;1999.90;999.90;;;35.00;29.40;;;;;;4957075;28;20431;-72
2022/06/18 11:02:59;;;;;;;1999.90;999.90;;;34.80;29.50;;;;;;4956613;28;20481;-72
2022/06/18 11:05:25;;;;;;;1999.90;999.90;;;34.60;27.40;;;;;;4971865;28;20559;-72
2022/06/18 11:07:52;;;;;;;1999.90;999.90;;;34.80;28.50;;;;;;4956687;28;20540;-72
2022/06/18 11:10:38;;;;;;;1999.90;999.90;;;34.90;29.00;;;;;;4955541;29;20282;-72
2022/06/18 11:13:16;;;;;;;1999.90;999.90;;;34.90;28.00;;;;;;4955680;29;20481;-71
2022/06/18 11:15:42;;;;;;;1999.90;999.90;;;35.00;27.00;;;;;;4956006;28;20430;-72
2022/06/18 11:18:22;;;;;;;1999.90;999.90;;;34.80;28.30;;;;;;4955896;28;20441;-72
2022/06/18 11:21:05;;;;;;;1999.90;999.90;;;34.90;27.50;;;;;;4955970;28;20648;-72
2022/06/18 11:23:35;;;;;;;1999.90;999.90;;;35.10;29.90;;;;;;4955996;28;20446;-72
2022/06/18 11:26:01;;;;;;;1999.90;999.90;;;35.30;26.30;;;;;;4955567;28;20424;-72
2022/06/18 11:28:36;;;;;;;1999.90;999.90;;;35.40;29.30;;;;;;4956161;28;20786;-72
2022/06/18 11:31:04;;;;;;;1999.90;999.90;;;35.40;29.10;;;;;;4955867;28;20991;-72
2022/06/18 11:33:41;;;;;;;1999.90;999.90;;;35.20;28.40;;;;;;4955808;28;20418;-72
2022/06/18 11:36:13;;;;;;;1999.90;999.90;;;35.30;27.40;;;;;;4955559;28;20411;-72
2022/06/18 11:38:40;;;;;;;1999.90;999.90;;;35.30;27.90;;;;;;4955861;28;20915;-72
2022/06/18 11:41:20;;;;;;;1999.90;999.90;;;35.40;25.00;;;;;;4955835;28;20442;-72
2022/06/18 11:43:53;;;;;;;1999.90;999.90;;;35.40;25.40;;;;;;4955768;28;20440;-72
2022/06/18 11:46:28;;;;;;;1999.90;999.90;;;35.50;27.10;;;;;;4955424;28;20462;-72
2022/06/18 11:49:06;;;;;;;1999.90;999.90;;;35.70;24.80;;;;;;4955537;28;20884;-72
2022/06/18 11:52:00;;;;;;;1999.90;999.90;;;35.90;24.00;;;;;;4955534;28;20406;-72
2022/06/18 11:54:43;;;;;;;1999.90;999.90;;;36.30;23.60;;;;;;4955614;28;20418;-72
2022/06/18 11:57:35;;;;;;;1999.90;999.90;;;36.20;25.10;;;;;;4955157;28;20414;-72
2022/06/18 12:00:12;;;;;;;1999.90;999.90;;;36.20;23.90;;;;;;4955646;28;20964;-72
2022/06/18 12:02:49;;;;;;;1999.90;999.90;;;36.00;25.20;;;;;;4955206;28;20411;-72
2022/06/18 12:05:57;;;;;;;1999.90;999.90;;;36.00;25.80;;;;;;4955320;28;20975;-72
2022/06/18 12:08:23;;;;;;;1999.90;999.90;;;36.40;25.70;;;;;;4949756;28;20442;-72
2022/06/18 12:10:55;;;;;;;1999.90;999.90;;;36.90;21.10;;;;;;4955130;28;20438;-72
2022/06/18 12:13:26;;;;;;;1999.90;999.90;;;37.30;20.80;;;;;;4955180;28;20402;-72
2022/06/18 12:15:58;;;;;;;1999.90;999.90;;;37.90;19.90;;;;;;4955003;28;20465;-72
2022/06/18 12:18:48;;;;;;;1999.90;999.90;;;38.40;18.80;;;;;;4955083;28;20411;-71
2022/06/18 12:21:39;;;;;;;1999.90;999.90;;;38.90;18.50;;;;;;4954982;28;20529;-71
2022/06/18 12:24:09;;;;;;;1999.90;999.90;;;39.50;19.10;;;;;;4954998;28;20822;-72
2022/06/18 12:26:53;;;;;;;1999.90;999.90;;;39.50;18.70;;;;;;4954581;28;20458;-72
2022/06/18 12:29:49;;;;;;;1999.90;999.90;;;39.70;15.90;;;;;;4954193;28;20927;-72
2022/06/18 12:32:21;;;;;;;1999.90;999.90;;;40.30;16.80;;;;;;4954948;28;20838;-72